^^
Datos históricos de la estación: Murcia-Puente Tocinos
Diario Informe para Marzo 6, 2019 Unidades:  Inglés    Métrico   Ambas
Diario Semanal Mensual Anual Configurable
  Máximo: Mínimo: Media:
Temperatura: 72.9 °F 54.1 °F 61.9 °F
Punto de rocio: 55.8 °F 39 °F 50.9 °F
Humedad: 96% 32% 72%
Velocidad viento: 13.5mph 0mph 4.7mph
Racha viento: 29mph - -
Viento- - SSE
Presión: 30 in 29.7 in -
Precipitación: 0 in    
Historical Graphs
 
 
Tabla de datos para Marzo 6, 2019
Hora Temperatura Punto de rocio Presión Viento Velocidad viento Racha viento Humedad Intensidad lluvia(por hora) Nubes
00:00 56.8 °F 54 °F 30 in NE 3 mph 6 mph 90% 0 in CLR
00:05 56.8 °F 54 °F 30 in NE 3.1 mph 5.2 mph 90% 0 in CLR
00:10 56.8 °F 54 °F 30 in NE 2.9 mph 4.6 mph 90% 0 in CLR
00:15 56.8 °F 54.1 °F 30 in NE 2.9 mph 6.2 mph 91% 0 in CLR
00:20 56.8 °F 54.5 °F 29.9 in NE 4 mph 6.9 mph 92% 0 in CLR
00:25 56.8 °F 54.5 °F 29.9 in ENE 4 mph 4.6 mph 92% 0 in CLR
00:30 56.8 °F 54.5 °F 29.9 in NNE 4.7 mph 9.2 mph 92% 0 in CLR
00:35 56.7 °F 54.3 °F 29.9 in NE 4.7 mph 6.9 mph 92% 0 in CLR
00:40 56.5 °F 54.5 °F 29.9 in NE 5.4 mph 5.8 mph 93% 0 in CLR
00:45 56.3 °F 54.3 °F 29.9 in NNE 5.4 mph 6.4 mph 93% 0 in CLR
00:50 56.1 °F 54.1 °F 29.9 in NNE 4 mph 5.8 mph 93% 0 in CLR
00:55 56.1 °F 54.1 °F 29.9 in NE 4 mph 4.6 mph 93% 0 in CLR
01:00 56.1 °F 54.1 °F 29.9 in NNE 3 mph 6 mph 93% 0 in CLR
01:05 55.9 °F 54.1 °F 29.9 in North 3.6 mph 4.6 mph 94% 0 in CLR
01:10 56.1 °F 54.3 °F 29.9 in NE 3.1 mph 5.2 mph 94% 0 in CLR
01:15 56.1 °F 54.3 °F 29.9 in NE 3.1 mph 6.9 mph 94% 0 in CLR
01:20 56.1 °F 54.3 °F 29.9 in NNW 4.3 mph 8.1 mph 94% 0 in CLR
01:25 56.1 °F 54.7 °F 29.9 in NE 4.3 mph 4.6 mph 95% 0 in CLR
01:30 56.1 °F 54.7 °F 29.9 in NE 4.3 mph 3.5 mph 95% 0 in CLR
01:35 56.3 °F 54.9 °F 29.9 in NE 4.3 mph 5.2 mph 95% 0 in CLR
01:40 56.1 °F 54.7 °F 29.9 in NE 3 mph 7 mph 95% 0 in CLR
01:45 56.1 °F 54.7 °F 29.9 in NE 3.1 mph 4.7 mph 95% 0 in CLR
01:50 56.1 °F 54.7 °F 29.9 in ENE 3.6 mph 6.9 mph 95% 0 in CLR
01:55 55.9 °F 54.5 °F 29.9 in NNE 3.6 mph 6.9 mph 95% 0 in CLR
02:00 55.9 °F 54.5 °F 29.9 in NE 5 mph 6 mph 95% 0 in CLR
02:05 55.9 °F 54.5 °F 29.9 in NE 4 mph 3.5 mph 95% 0 in CLR
02:10 55.9 °F 54.5 °F 29.9 in NE 2.4 mph 5.8 mph 95% 0 in CLR
02:15 55.8 °F 54.3 °F 29.9 in NE 2.4 mph 5.8 mph 95% 0 in CLR
02:20 55.6 °F 54.1 °F 29.9 in East 4 mph 5.2 mph 95% 0 in CLR
02:25 55.2 °F 53.8 °F 29.9 in ENE 4 mph 4.7 mph 95% 0 in CLR
02:30 55.2 °F 53.8 °F 29.9 in ENE 3.1 mph 4.6 mph 95% 0 in CLR
02:35 55 °F 53.6 °F 29.9 in ESE 3.1 mph 5.8 mph 95% 0 in CLR
02:40 54.9 °F 53.4 °F 29.9 in ENE 2.4 mph 4.6 mph 95% 0 in CLR
02:45 54.9 °F 53.4 °F 29.9 in ENE 2.4 mph 4.6 mph 95% 0 in CLR
02:50 54.9 °F 53.4 °F 29.9 in ESE 2.4 mph 4.6 mph 95% 0 in CLR
02:55 54.9 °F 53.4 °F 29.9 in NE 2.4 mph 4.6 mph 95% 0 in CLR
03:00 54.9 °F 53.4 °F 29.9 in ENE 2 mph 5 mph 95% 0 in CLR
03:05 55 °F 53.6 °F 29.9 in East 2.4 mph 4.6 mph 95% 0 in CLR
03:10 55 °F 53.6 °F 29.9 in East 3.6 mph 5.8 mph 95% 0 in CLR
03:15 55 °F 53.6 °F 29.9 in ESE 3.6 mph 5.8 mph 95% 0 in CLR
03:20 55 °F 53.6 °F 29.9 in NE 3.1 mph 4.6 mph 95% 0 in CLR
03:25 55 °F 53.6 °F 29.9 in ESE 3.1 mph 4.6 mph 95% 0 in CLR
03:30 55 °F 54 °F 29.9 in ESE 2.9 mph 2.3 mph 96% 0 in CLR
03:35 55 °F 53.6 °F 29.9 in East 2.9 mph 4.6 mph 95% 0 in CLR
03:40 55 °F 53.6 °F 29.9 in ENE 1.8 mph 3.5 mph 95% 0 in CLR
03:45 55 °F 53.6 °F 29.9 in East 1.8 mph 5.8 mph 95% 0 in CLR
03:50 54.7 °F 53.2 °F 29.9 in East 2.9 mph 4.6 mph 95% 0 in CLR
03:55 54.7 °F 53.2 °F 29.9 in East 2.9 mph 5.8 mph 95% 0 in CLR
04:00 54.3 °F 52.9 °F 29.9 in ESE 3 mph 7 mph 95% 0 in CLR
04:05 54.3 °F 52.9 °F 29.9 in ESE 3.6 mph 5.8 mph 95% 0 in CLR
04:10 54.1 °F 52.7 °F 29.9 in SE 4 mph 4.6 mph 95% 0 in CLR
04:15 54.1 °F 52.7 °F 29.9 in SE 4 mph 3.5 mph 95% 0 in CLR
04:20 54.1 °F 53.1 °F 29.9 in SE 2.9 mph 4.6 mph 96% 0 in CLR
04:25 54.3 °F 53.2 °F 29.9 in SE 2.9 mph 4.6 mph 96% 0 in CLR
04:30 54.3 °F 52.9 °F 29.9 in SSE 2.9 mph 5.2 mph 95% 0 in CLR
04:35 54.3 °F 52.9 °F 29.9 in SSE 2.9 mph 6.2 mph 95% 0 in CLR
04:40 54.5 °F 53.1 °F 29.9 in SSE 4.3 mph 4.6 mph 95% 0 in CLR
04:45 54.5 °F 53.1 °F 29.9 in South 4.3 mph 4.6 mph 95% 0 in CLR
04:50 54.7 °F 53.2 °F 29.9 in South 3.1 mph 1.2 mph 95% 0 in CLR
04:55 54.7 °F 53.2 °F 29.9 in South 3.1 mph   95% 0 in CLR
05:00 54.9 °F 53.4 °F 29.9 in Calm   5 mph 95% 0 in CLR
05:05 54.9 °F 53.4 °F 29.9 in Calm   4.6 mph 95% 0 in CLR
05:10 54.7 °F 53.1 °F 29.9 in SSE 3.6 mph 5.8 mph 94% 0 in CLR
05:15 54.7 °F 53.1 °F 29.9 in SSE 3.6 mph 3.1 mph 94% 0 in CLR
05:20 54.9 °F 53.2 °F 29.9 in SSE 2.4 mph   94% 0 in CLR
05:25 54.9 °F 53.2 °F 29.9 in SSE 2.4 mph 5.8 mph 94% 0 in CLR
05:30 54.9 °F 53.2 °F 29.9 in SSE 2.4 mph 4.6 mph 94% 0 in CLR
05:35 54.9 °F 53.2 °F 29.8 in SE 2.4 mph 4.6 mph 94% 0 in CLR
05:40 54.9 °F 52.9 °F 29.8 in SSE 3.6 mph 4.7 mph 93% 0 in CLR
05:45 55 °F 53.1 °F 29.8 in SSE 3.6 mph 4.6 mph 93% 0 in CLR
05:50 55 °F 53.1 °F 29.9 in SSE 3.1 mph 4.6 mph 93% 0 in CLR
05:55 55 °F 53.1 °F 29.9 in SSE 3.1 mph 2.3 mph 93% 0 in CLR
06:00 55 °F 53.1 °F 29.9 in SSE 2 mph 5 mph 93% 0 in CLR
06:05 55.2 °F 53.2 °F 29.9 in SSE 2.4 mph 4 mph 93% 0 in CLR
06:10 55.2 °F 53.2 °F 29.9 in SSE 2.4 mph 4.6 mph 93% 0 in CLR
06:15 55.2 °F 53.2 °F 29.9 in ESE 2.4 mph 4.3 mph 93% 0 in CLR
06:20 55.2 °F 53.2 °F 29.9 in ESE 2.9 mph 5.2 mph 93% 0 in CLR
06:25 55.2 °F 53.2 °F 29.9 in East 2.9 mph 4.6 mph 93% 0 in CLR
06:30 55.2 °F 53.2 °F 29.9 in ESE 2.9 mph 4.6 mph 93% 0 in CLR
06:35 55 °F 53.1 °F 29.8 in ESE 2.9 mph 3.5 mph 93% 0 in CLR
06:40 55 °F 53.1 °F 29.8 in East 2.9 mph 2.3 mph 93% 0 in CLR
06:45 55 °F 53.1 °F 29.8 in East 2.9 mph   93% 0 in CLR
06:50 55 °F 53.1 °F 29.8 in Calm     93% 0 in CLR
06:55 55 °F 53.1 °F 29.8 in Calm   4.6 mph 93% 0 in CLR
07:00 55 °F 53.1 °F 29.8 in NE 2 mph 3 mph 93% 0 in CLR
07:05 54.9 °F 52.9 °F 29.8 in NE 1.8 mph 3.5 mph 93% 0 in CLR
07:10 54.9 °F 52.9 °F 29.8 in NE 2 mph 3.1 mph 93% 0 in CLR
07:15 54.9 °F 52.9 °F 29.8 in NE 2 mph 3.5 mph 93% 0 in CLR
07:20 54.9 °F 52.9 °F 29.8 in NE 2 mph 3.5 mph 93% 0 in CLR
07:25 54.7 °F 52.7 °F 29.8 in NE 2 mph 5.8 mph 93% 0 in CLR
07:30 54.7 °F 52.7 °F 29.8 in NE 2.9 mph 4.7 mph 93% 0 in CLR
07:35 54.5 °F 52.5 °F 29.8 in NE 2.9 mph 2.9 mph 93% 0 in CLR
07:40 54.7 °F 52.7 °F 29.8 in NE 2.9 mph 4.7 mph 93% 0 in CLR
07:45 54.7 °F 52.7 °F 29.8 in NNE 2.9 mph 4.6 mph 93% 0 in CLR
07:50 54.7 °F 52.7 °F 29.8 in NE 3.1 mph 4.6 mph 93% 0 in CLR
07:55 54.7 °F 52.7 °F 29.8 in NE 3.1 mph 4.6 mph 93% 0 in CLR
08:00 54.7 °F 53.1 °F 29.8 in NNE 2 mph 5 mph 94% 0 in CLR
08:05 54.7 °F 53.1 °F 29.8 in ENE 2.9 mph 5.8 mph 94% 0 in CLR
08:10 54.7 °F 53.1 °F 29.8 in NE 3.6 mph 4.6 mph 94% 0 in CLR
08:15 54.7 °F 53.1 °F 29.8 in NE 3.6 mph 3.5 mph 94% 0 in CLR
08:20 54.9 °F 53.2 °F 29.8 in NNW 2.4 mph 2.3 mph 94% 0 in CLR
08:25 54.9 °F 53.2 °F 29.8 in NNW 2.4 mph   94% 0 in CLR
08:30 55 °F 53.2 °F 29.8 in Calm   3.5 mph 94% 0 in CLR
08:35 55 °F 53.2 °F 29.8 in Calm   3.5 mph 94% 0 in CLR
08:40 55 °F 53.2 °F 29.8 in NNW 2 mph 2.3 mph 94% 0 in CLR
08:45 55.2 °F 53.4 °F 29.8 in North 2 mph 5.8 mph 94% 0 in CLR
08:50 55.2 °F 53.4 °F 29.8 in North 2.4 mph 4.6 mph 94% 0 in CLR
08:55 55.2 °F 53.4 °F 29.8 in NNE 2.4 mph 5.8 mph 94% 0 in CLR
09:00 55.2 °F 53.4 °F 29.8 in NE 2 mph 6 mph 94% 0 in CLR
09:05 55.2 °F 53.4 °F 29.8 in NNE 2.9 mph 4.6 mph 94% 0 in CLR
09:10 55.2 °F 53.4 °F 29.8 in NNE 3.1 mph 5.8 mph 94% 0 in CLR
09:15 55.4 °F 53.8 °F 29.8 in North 3.1 mph 4 mph 94% 0 in CLR
09:20 55.6 °F 54 °F 29.8 in NE 2.4 mph 5.8 mph 94% 0 in CLR
09:25 55.6 °F 54 °F 29.8 in NNW 2.4 mph 4.6 mph 94% 0 in CLR
09:30 55.6 °F 54 °F 29.8 in North 3.6 mph 4.6 mph 94% 0 in CLR
09:35 55.8 °F 53.8 °F 29.8 in NNE 3.6 mph 4.6 mph 93% 0 in CLR
09:40 55.8 °F 53.8 °F 29.8 in NW 3.1 mph 4.3 mph 93% 0 in CLR
09:45 55.9 °F 54 °F 29.8 in NNW 3.1 mph 5.2 mph 93% 0 in CLR
09:50 56.1 °F 54.1 °F 29.8 in North 2.9 mph 6.9 mph 93% 0 in CLR
09:55 56.1 °F 53.8 °F 29.8 in ENE 2.9 mph 8.1 mph 92% 0 in CLR
10:00 56.3 °F 54 °F 29.8 in NNE 5 mph 7 mph 92% 0 in CLR
10:05 56.5 °F 54.1 °F 29.8 in NNE 4.3 mph 6.9 mph 92% 0 in CLR
10:10 56.7 °F 54.3 °F 29.8 in NE 4.3 mph 6.9 mph 92% 0 in CLR
10:15 56.8 °F 54.5 °F 29.8 in NE 4.3 mph 5.8 mph 92% 0 in CLR
10:20 57 °F 54.3 °F 29.8 in NNE 3.6 mph 6.9 mph 91% 0 in CLR
10:25 57.4 °F 54.9 °F 29.8 in NNE 3.6 mph 6.9 mph 91% 0 in CLR
10:30 57.6 °F 55 °F 29.8 in NE 4.3 mph 4.6 mph 91% 0 in CLR
10:35 57.7 °F 54.9 °F 29.8 in NNW 4.3 mph 4.6 mph 90% 0 in CLR
10:40 58.1 °F 54.9 °F 29.8 in NNW 3.1 mph 5.8 mph 89% 0 in CLR
10:45 58.3 °F 54.7 °F 29.8 in North 3.1 mph 4.6 mph 88% 0 in CLR
10:50 58.5 °F 54.7 °F 29.8 in NNE 3.6 mph 2.3 mph 87% 0 in CLR
10:55 58.6 °F 54.9 °F 29.8 in NW 3.6 mph 3.1 mph 87% 0 in CLR
11:00 58.8 °F 54.9 °F 29.8 in NNW 2 mph 5 mph 87% 0 in CLR
11:05 58.8 °F 54.7 °F 29.8 in NE 2 mph 4.6 mph 86% 0 in CLR
11:10 59 °F 54.9 °F 29.8 in NE 2.4 mph 4.7 mph 86% 0 in CLR
11:15 59.2 °F 54.7 °F 29.8 in ENE 2.4 mph 5.8 mph 85% 0 in CLR
11:20 59.2 °F 54.7 °F 29.8 in NNE 2.9 mph 3.5 mph 85% 0 in CLR
11:25 59.2 °F 54.7 °F 29.8 in NNW 2.9 mph 4.6 mph 85% 0 in CLR
11:30 59.4 °F 54.9 °F 29.8 in North 2 mph 5 mph 85% 0 in CLR
11:35 59.5 °F 54.7 °F 29.8 in North 2 mph 4.6 mph 84% 0 in CLR
11:40 59.7 °F 54.9 °F 29.8 in NNW 2.4 mph 4.6 mph 84% 0 in CLR
11:45 59.7 °F 54.5 °F 29.8 in NE 2.4 mph 5.8 mph 83% 0 in CLR
11:50 60.1 °F 54.9 °F 29.8 in NW 3.1 mph 4.6 mph 83% 0 in CLR
11:55 60.3 °F 55 °F 29.8 in NNW 3.1 mph 4.6 mph 83% 0 in CLR
12:00 60.6 °F 55.4 °F 29.8 in North 2 mph 7 mph 83% 0 in CLR
12:05 60.8 °F 55.2 °F 29.8 in NNW 2.9 mph 5.8 mph 82% 0 in CLR
12:10 61 °F 55 °F 29.8 in NNE 4 mph 4.6 mph 81% 0 in CLR
12:15 61.2 °F 55.2 °F 29.8 in NNE 4 mph 8.1 mph 81% 0 in CLR
12:20 61.3 °F 55 °F 29.8 in NNE 4.3 mph 6.9 mph 80% 0 in CLR
12:25 61.5 °F 55.2 °F 29.8 in NE 4.3 mph 5.8 mph 80% 0 in CLR
12:30 62.1 °F 55.6 °F 29.8 in NNW 4 mph 4.6 mph 79% 0 in CLR
12:35 62.8 °F 55.8 °F 29.8 in NE 4 mph 5.2 mph 78% 0 in CLR
12:40 63.3 °F 55.2 °F 29.8 in North 2.9 mph 4.6 mph 75% 0 in CLR
12:45 63.7 °F 55.2 °F 29.8 in North 2.9 mph 8.1 mph 74% 0 in CLR
12:50 63.9 °F 55.4 °F 29.8 in NNW 3.6 mph 6.9 mph 74% 0 in CLR
12:55 64.2 °F 55.4 °F 29.8 in ENE 3.6 mph 6.9 mph 73% 0 in CLR
13:00 64.4 °F 55.6 °F 29.8 in NE 5 mph 7 mph 73% 0 in CLR
13:05 64.6 °F 55.2 °F 29.8 in NE 4 mph 4.6 mph 72% 0 in CLR
13:10 64.9 °F 55.2 °F 29.8 in NE 3.1 mph 5.9 mph 71% 0 in CLR
13:15 65.1 °F 54.7 °F 29.8 in NNE 3.1 mph 6.9 mph 69% 0 in CLR
13:20 65.5 °F 55 °F 29.8 in NE 3.1 mph 3.5 mph 69% 0 in CLR
13:25 65.7 °F 55.2 °F 29.8 in NW 3.1 mph 5.8 mph 69% 0 in CLR
13:30 66 °F 54.7 °F 29.8 in NW 3.1 mph 4.6 mph 67% 0 in CLR
13:35 66.6 °F 55.2 °F 29.8 in NNE 3.1 mph 5.8 mph 67% 0 in CLR
13:40 66.7 °F 54.7 °F 29.8 in NW 2.9 mph 5.8 mph 65% 0 in CLR
13:45 66.9 °F 54.9 °F 29.8 in WNW 2.9 mph 4.6 mph 65% 0 in CLR
13:50 66.9 °F 54.9 °F 29.8 in NE 3.6 mph 5.8 mph 65% 0 in CLR
13:55 67.5 °F 54.9 °F 29.8 in North 3.6 mph 8.1 mph 64% 0 in CLR
14:00 67.6 °F 55 °F 29.8 in North 3 mph 9 mph 64% 0 in CLR
14:05 67.6 °F 55 °F 29.7 in NNE 3.6 mph 8.1 mph 64% 0 in CLR
14:10 67.5 °F 54.3 °F 29.7 in NE 5.2 mph 6.9 mph 63% 0 in CLR
14:15 67.3 °F 54.3 °F 29.7 in ENE 5.2 mph 5.8 mph 63% 0 in CLR
14:20 67.5 °F 54.3 °F 29.7 in North 3.6 mph 6.9 mph 63% 0 in CLR
14:25 67.6 °F 54.1 °F 29.7 in NW 3.6 mph 4.7 mph 62% 0 in CLR
14:30 67.8 °F 54.3 °F 29.7 in NNE 3.6 mph 8.1 mph 62% 0 in CLR
14:35 67.8 °F 54 °F 29.7 in NNE 3.6 mph 6.9 mph 61% 0 in CLR
14:40 67.8 °F 54 °F 29.7 in NNE 4 mph 8.1 mph 61% 0 in CLR
14:45 68 °F 54 °F 29.7 in NE 4 mph 5.9 mph 61% 0 in CLR
14:50 68.4 °F 54 °F 29.7 in NE 4.7 mph 8.1 mph 60% 0 in CLR
14:55 68.5 °F 54.1 °F 29.7 in ESE 4.7 mph 4.6 mph 60% 0 in CLR
15:00 68.9 °F 53.4 °F 29.7 in East 3 mph 6 mph 58% 0 in CLR
15:05 69.3 °F 53.4 °F 29.7 in ENE 3.6 mph 5.4 mph 57% 0 in CLR
15:10 69.6 °F 52.7 °F 29.7 in SSW 3.1 mph 8.1 mph 55% 0 in CLR
15:15 70.2 °F 51.3 °F 29.7 in South 3.1 mph 12.7 mph 51% 0 in CLR
15:20 70.5 °F 51.1 °F 29.7 in SSE 7.6 mph 11.5 mph 50% 0 in CLR
15:25 71.1 °F 50.9 °F 29.7 in South 7.6 mph 17.3 mph 49% 0 in CLR
15:30 71.1 °F 50.4 °F 29.7 in SSE 8.1 mph 16.1 mph 48% 0 in CLR
15:35 71.1 °F 50.4 °F 29.7 in SSE 8.1 mph 12.7 mph 48% 0 in CLR
15:40 71.2 °F 50.5 °F 29.7 in SE 8.5 mph 9.2 mph 48% 0 in CLR
15:45 71.4 °F 49.6 °F 29.7 in ESE 8.5 mph 13.8 mph 46% 0 in CLR
15:50 71.8 °F 48.7 °F 29.7 in South 7.4 mph 13.8 mph 44% 0 in CLR
15:55 71.8 °F 48.7 °F 29.7 in SSE 7.4 mph 11.5 mph 44% 0 in CLR
16:00 71.8 °F 48 °F 29.7 in SSE 9 mph 13 mph 43% 0 in CLR
16:05 72.1 °F 47.8 °F 29.7 in SSE 9.2 mph 19.6 mph 42% 0 in CLR
16:10 72.1 °F 47.1 °F 29.7 in SE 9.7 mph 11.5 mph 41% 0 in CLR
16:15 72.5 °F 47.5 °F 29.7 in SSW 9.7 mph 11.5 mph 41% 0 in CLR
16:20 72.7 °F 47.7 °F 29.7 in SE 7.6 mph 8.1 mph 41% 0 in CLR
16:25 72.9 °F 47.1 °F 29.7 in SSW 7.6 mph 10.4 mph 40% 0 in CLR
16:30 72.9 °F 49.1 °F 29.7 in WSW 5.2 mph 6.9 mph 43% 0 in CLR
16:35 72.9 °F 49.6 °F 29.7 in West 5.2 mph 6.9 mph 44% 0 in CLR
16:40 72.7 °F 49.5 °F 29.7 in WSW 5.2 mph 8.1 mph 44% 0 in CLR
16:45 72.7 °F 50.2 °F 29.7 in WSW 5.2 mph 4.6 mph 45% 0 in CLR
16:50 72.5 °F 49.3 °F 29.7 in WNW 4.3 mph 5.8 mph 44% 0 in CLR
16:55 72.7 °F 50.2 °F 29.7 in West 4.3 mph 6.9 mph 45% 0 in CLR
17:00 72.7 °F 49.5 °F 29.7 in WNW 5 mph 7 mph 44% 0 in CLR
17:05 72.5 °F 49.3 °F 29.7 in NW 4.3 mph 5.8 mph 44% 0 in CLR
17:10 72.5 °F 49.3 °F 29.7 in NNW 3.6 mph 4.6 mph 44% 0 in CLR
17:15 72.5 °F 48.7 °F 29.7 in NNW 3.6 mph   43% 0 in CLR
17:20 72.7 °F 48.9 °F 29.7 in NNW 2 mph 4.6 mph 43% 0 in CLR
17:25 72.7 °F 48.9 °F 29.7 in NW 2 mph 5.8 mph 43% 0 in CLR
17:30 72.5 °F 48.7 °F 29.7 in NNE 4 mph 9.2 mph 43% 0 in CLR
17:35 72.3 °F 48.6 °F 29.7 in NW 4 mph 5.8 mph 43% 0 in CLR
17:40 72.3 °F 48.6 °F 29.7 in NE 4 mph 2.4 mph 43% 0 in CLR
17:45 72.7 °F 48.4 °F 29.7 in NW 4 mph 4.6 mph 42% 0 in CLR
17:50 72.9 °F 48.4 °F 29.7 in NNW 2 mph 4.6 mph 42% 0 in CLR
17:55 72.9 °F 48.4 °F 29.7 in NE 2 mph 3.6 mph 42% 0 in CLR
18:00 72.7 °F 48.4 °F 29.7 in North 2 mph 6 mph 42% 0 in CLR
18:05 72.7 °F 48.4 °F 29.7 in NW 2.9 mph 4.7 mph 42% 0 in CLR
18:10 72.3 °F 48.6 °F 29.7 in NW 2 mph 2.3 mph 43% 0 in CLR
18:15 72.3 °F 48.6 °F 29.7 in WNW 2 mph 4.6 mph 43% 0 in CLR
18:20 72.1 °F 48.4 °F 29.7 in NW 2.4 mph 5.8 mph 43% 0 in CLR
18:25 72 °F 48.2 °F 29.7 in WNW 2.4 mph 5.8 mph 43% 0 in CLR
18:30 71.8 °F 48 °F 29.7 in WNW 4 mph 4.6 mph 43% 0 in CLR
18:35 71.8 °F 48 °F 29.7 in NW 4 mph 5.8 mph 43% 0 in CLR
18:40 71.8 °F 48 °F 29.7 in WNW 4 mph 6.9 mph 43% 0 in CLR
18:45 72 °F 48.2 °F 29.7 in SW 4 mph 5.9 mph 43% 0 in CLR
18:50 72 °F 48.2 °F 29.7 in SSW 4 mph 19.6 mph 43% 0 in CLR
18:55 72.5 °F 41.7 °F 29.7 in WNW 4 mph 19.6 mph 33% 0 in CLR
19:00 72.9 °F 41.4 °F 29.7 in SW 13 mph 29 mph 32% 0 in CLR
19:05 72.9 °F 41.4 °F 29.7 in SW 12.3 mph 20.7 mph 32% 0 in CLR
19:10 72.9 °F 42.1 °F 29.7 in SW 13.5 mph 18.4 mph 33% 0 in CLR
19:15 72.7 °F 41.9 °F 29.7 in SW 13.5 mph 26.5 mph 33% 0 in CLR
19:20 72.3 °F 41.5 °F 29.7 in SW 12.5 mph 23 mph 33% 0 in CLR
19:25 72 °F 42.1 °F 29.7 in SW 12.5 mph 18.4 mph 34% 0 in CLR
19:30 71.8 °F 42.6 °F 29.7 in WSW 11.8 mph 15 mph 35% 0 in CLR
19:35 71.4 °F 43.2 °F 29.7 in SSW 11.8 mph 18.4 mph 36% 0 in CLR
19:40 71.2 °F 43.5 °F 29.7 in South 10.2 mph 19.6 mph 37% 0 in CLR
19:45 71.1 °F 43.5 °F 29.7 in West 10.2 mph 11.5 mph 37% 0 in CLR
19:50 70.7 °F 43.9 °F 29.8 in SSW 10.7 mph 17.3 mph 38% 0 in CLR
19:55 70.3 °F 44.2 °F 29.8 in WSW 10.7 mph 24.2 mph 39% 0 in CLR
20:00 70.2 °F 44.1 °F 29.8 in SW 10 mph 21 mph 39% 0 in CLR
20:05 70 °F 44.4 °F 29.8 in West 10.7 mph 10.4 mph 40% 0 in CLR
20:10 69.6 °F 44.2 °F 29.8 in SW 11.4 mph 17.3 mph 40% 0 in CLR
20:15 69.3 °F 44.4 °F 29.8 in SW 11.4 mph 18.4 mph 41% 0 in CLR
20:20 69.1 °F 44.4 °F 29.8 in SW 12.3 mph 21.9 mph 41% 0 in CLR
20:25 68.9 °F 44.2 °F 29.8 in WSW 12.3 mph 17.3 mph 41% 0 in CLR
20:30 68.7 °F 44.1 °F 29.8 in SW 11.2 mph 20.7 mph 41% 0 in CLR
20:35 68.7 °F 44.1 °F 29.8 in WSW 11.2 mph 12.7 mph 41% 0 in CLR
20:40 68.5 °F 43.9 °F 29.8 in SW 10.7 mph 23 mph 41% 0 in CLR
20:45 68.5 °F 43.9 °F 29.8 in SW 10.7 mph 16.1 mph 41% 0 in CLR
20:50 68.4 °F 43.7 °F 29.8 in SSW 11.4 mph 8.1 mph 41% 0 in CLR
20:55 68.2 °F 43.5 °F 29.8 in SW 11.4 mph 17.3 mph 41% 0 in CLR
21:00 68 °F 43.3 °F 29.8 in SW 8 mph 15 mph 41% 0 in CLR
21:05 67.8 °F 43.9 °F 29.8 in WSW 8.1 mph 11.5 mph 42% 0 in CLR
21:10 67.6 °F 43.7 °F 29.8 in SW 7.4 mph 9.2 mph 42% 0 in CLR
21:15 67.5 °F 43.5 °F 29.8 in WSW 7.4 mph 12.7 mph 42% 0 in CLR
21:20 67.5 °F 43.5 °F 29.8 in West 6.4 mph 11.5 mph 42% 0 in CLR
21:25 67.3 °F 43.3 °F 29.8 in West 6.4 mph 15 mph 42% 0 in CLR
21:30 67.1 °F 43.2 °F 29.8 in SW 8.1 mph 12.7 mph 42% 0 in CLR
21:35 66.9 °F 43.7 °F 29.8 in West 8.1 mph 15.2 mph 43% 0 in CLR
21:40 66.6 °F 44.1 °F 29.8 in WNW 8.5 mph 13.8 mph 44% 0 in CLR
21:45 66 °F 44.1 °F 29.8 in SW 8.5 mph 15 mph 45% 0 in CLR
21:50 65.7 °F 44.2 °F 29.8 in WNW 8.7 mph 13.8 mph 46% 0 in CLR
21:55 65.5 °F 44.1 °F 29.8 in West 8.7 mph 14 mph 46% 0 in CLR
22:00 65.1 °F 44.4 °F 29.8 in West 8 mph 15 mph 47% 0 in CLR
22:05 64.8 °F 44.1 °F 29.9 in West 8.5 mph 10.7 mph 47% 0 in CLR
22:10 64.4 °F 44.2 °F 29.9 in WNW 8.5 mph 12.7 mph 48% 0 in CLR
22:15 64.2 °F 44.1 °F 29.9 in NW 8.5 mph 15 mph 48% 0 in CLR
22:20 64 °F 43.9 °F 29.9 in NW 9.2 mph 10.4 mph 48% 0 in CLR
22:25 63.9 °F 43.9 °F 29.9 in West 9.2 mph 12.7 mph 48% 0 in CLR
22:30 63.7 °F 43.5 °F 29.9 in NW 8.1 mph 10.4 mph 48% 0 in CLR
22:35 63.3 °F 43.3 °F 29.9 in NW 8.1 mph 10.4 mph 48% 0 in CLR
22:40 63 °F 43.5 °F 29.9 in WNW 8.1 mph 11.5 mph 49% 0 in CLR
22:45 62.6 °F 43.2 °F 29.9 in WNW 8.1 mph 12.7 mph 49% 0 in CLR
22:50 62.2 °F 42.8 °F 29.9 in NW 8.1 mph 10 mph 49% 0 in CLR
22:55 62.1 °F 43.2 °F 29.9 in West 8.1 mph 13.5 mph 50% 0 in CLR
23:00 61.9 °F 43 °F 29.9 in WNW 8 mph 16 mph 50% 0 in CLR
23:05 61.7 °F 43 °F 29.9 in NW 8.5 mph 9.2 mph 50% 0 in CLR
23:10 61.7 °F 43 °F 29.9 in WNW 8.7 mph 9.2 mph 50% 0 in CLR
23:15 61.7 °F 43 °F 29.9 in West 8.7 mph 8.1 mph 50% 0 in CLR
23:20 61.5 °F 42.6 °F 29.9 in West 6.4 mph 12.7 mph 50% 0 in CLR
23:25 61.5 °F 42.6 °F 29.9 in West 6.4 mph 6.9 mph 50% 0 in CLR
23:30 61.3 °F 42.4 °F 29.9 in WSW 5.9 mph 9.2 mph 50% 0 in CLR
23:35 61.5 °F 42.6 °F 29.9 in West 5.9 mph 7.6 mph 50% 0 in CLR
23:40 61.3 °F 41.5 °F 29.9 in West 5.2 mph 10 mph 48% 0 in CLR
23:45 61.5 °F 40.5 °F 29.9 in WSW 5.2 mph 12.7 mph 46% 0 in CLR
23:50 61.5 °F 39.4 °F 29.9 in SW 7.4 mph 13.8 mph 44% 0 in CLR
23:55 61.7 °F 39 °F 29.9 in WSW 7.4 mph 12.7 mph 43% 0 in CLR
Murcia-Puente Tocinos, España
Compliments of Weather Underground - 2.75 mb

La estación de MeteoMurcia.com, publica sus datos en los siguientes proyectos:

Weather Underground PWS IMURCIAP2 Meteoclimatic www.awekas.at

W3Counter
Web Analytics